createdAt,value
2023-05-14T00:00:24.701Z,4.57
2023-05-14T00:10:49.432Z,4.07
2023-05-14T00:16:12.355Z,4.15
2023-05-14T00:21:15.552Z,4.03
2023-05-14T00:26:18.608Z,4.82
2023-05-14T00:31:21.846Z,4.15
2023-05-14T00:36:24.996Z,4.20
2023-05-14T00:41:27.938Z,3.67
2023-05-14T00:46:31.526Z,4.93
2023-05-14T00:51:34.615Z,4.65
2023-05-14T00:56:37.582Z,4.70
2023-05-14T01:01:40.562Z,4.88
2023-05-14T01:07:12.816Z,4.68
2023-05-14T01:12:45.253Z,4.80
2023-05-14T01:17:58.336Z,4.93
2023-05-14T01:23:01.271Z,4.20
2023-05-14T01:28:18.332Z,4.80
2023-05-14T01:33:25.183Z,5.07
2023-05-14T01:38:31.960Z,4.70
2023-05-14T01:43:36.006Z,4.63
2023-05-14T01:48:39.074Z,4.00
2023-05-14T01:58:44.948Z,4.25
2023-05-14T02:03:48.020Z,4.70
2023-05-14T02:08:51.214Z,4.70
2023-05-14T02:13:54.154Z,4.75
2023-05-14T02:18:57.153Z,5.40
2023-05-14T02:24:19.960Z,4.80
2023-05-14T02:29:22.893Z,4.55
2023-05-14T02:34:26.150Z,4.05
2023-05-14T02:39:28.978Z,4.40
2023-05-14T02:44:52.410Z,4.90
2023-05-14T02:49:55.493Z,4.93
2023-05-14T02:54:58.896Z,4.90
2023-05-14T03:00:01.764Z,5.07
2023-05-14T03:05:09.508Z,4.95
2023-05-14T03:10:12.825Z,4.75
2023-05-14T03:15:15.897Z,4.97
2023-05-14T03:20:18.851Z,3.80
2023-05-14T03:25:22.282Z,4.50
2023-05-14T03:35:28.395Z,4.35
2023-05-14T03:40:31.298Z,4.43
2023-05-14T03:45:35.688Z,4.57
2023-05-14T03:50:39.100Z,4.13
2023-05-14T03:55:42.756Z,4.38
2023-05-14T04:00:47.723Z,4.28
2023-05-14T04:05:51.445Z,5.10
2023-05-14T04:10:55.869Z,4.68
2023-05-14T04:15:59.285Z,5.72
2023-05-14T04:26:05.637Z,4.78
2023-05-14T04:36:11.214Z,5.05
2023-05-14T04:41:14.083Z,4.90
2023-05-14T04:46:17.213Z,4.68
2023-05-14T04:51:20.093Z,4.57
2023-05-14T04:56:22.967Z,4.53
2023-05-14T05:01:25.915Z,4.93
2023-05-14T05:06:28.866Z,5.15
2023-05-14T05:11:32.038Z,4.43
2023-05-14T05:16:35.024Z,4.28
2023-05-14T05:26:43.161Z,4.50
2023-05-14T05:31:46.446Z,4.38
2023-05-14T05:36:49.363Z,4.50
2023-05-14T05:46:57.512Z,3.70
2023-05-14T05:52:00.655Z,4.72
2023-05-14T06:02:07.193Z,4.60
2023-05-14T06:07:10.720Z,4.45
2023-05-14T06:12:14.516Z,4.03
2023-05-14T06:17:18.365Z,4.03
2023-05-14T06:22:21.353Z,3.80
2023-05-14T06:27:24.214Z,4.00
2023-05-14T06:32:27.118Z,3.53
2023-05-14T06:37:30.209Z,3.17
2023-05-14T06:42:51.918Z,3.42
2023-05-14T06:47:56.161Z,3.15
2023-05-14T06:52:59.004Z,3.45
2023-05-14T06:58:01.868Z,3.05
2023-05-14T07:03:04.863Z,2.28
2023-05-14T07:08:08.144Z,2.83
2023-05-14T07:13:11.490Z,2.45
2023-05-14T07:18:14.497Z,2.15
2023-05-14T07:23:19.771Z,3.10
2023-05-14T07:28:22.897Z,2.30
2023-05-14T07:33:26.047Z,2.97
2023-05-14T07:38:29.011Z,3.00
2023-05-14T07:43:31.933Z,2.88
2023-05-14T07:48:34.919Z,2.80
2023-05-14T07:53:37.926Z,3.40
2023-05-14T07:58:41.638Z,3.47
2023-05-14T08:03:44.759Z,2.63
2023-05-14T08:08:47.855Z,2.70
2023-05-14T08:13:51.037Z,2.83
2023-05-14T08:18:53.933Z,2.88
2023-05-14T08:23:56.964Z,3.00
2023-05-14T08:28:59.991Z,2.72
2023-05-14T08:34:02.862Z,2.60
2023-05-14T08:39:07.949Z,3.22
2023-05-14T08:44:14.769Z,2.17
2023-05-14T08:49:17.663Z,2.63
2023-05-14T08:54:24.095Z,2.30
2023-05-14T08:59:27.208Z,2.40
2023-05-14T09:04:31.962Z,2.55
2023-05-14T09:09:35.149Z,2.15
2023-05-14T09:14:38.437Z,2.50
2023-05-14T09:19:42.889Z,2.92
2023-05-14T09:25:02.776Z,2.38
2023-05-14T09:30:10.234Z,2.00
2023-05-14T09:35:21.689Z,2.35
2023-05-14T09:40:25.141Z,2.40
2023-05-14T09:45:29.681Z,2.60
2023-05-14T09:50:32.918Z,2.15
2023-05-14T09:55:37.180Z,2.50
2023-05-14T10:00:40.148Z,1.80
2023-05-14T10:05:43.354Z,2.30
2023-05-14T10:10:46.194Z,2.28
2023-05-14T10:15:58.101Z,1.63
2023-05-14T10:21:05.220Z,2.10
2023-05-14T10:26:10.196Z,2.10
2023-05-14T10:31:14.487Z,1.50
2023-05-14T10:36:21.082Z,1.70
2023-05-14T10:41:24.034Z,1.63
2023-05-14T10:46:27.018Z,2.20
2023-05-14T10:51:31.645Z,1.75
2023-05-14T10:56:34.642Z,1.77
2023-05-14T11:01:41.074Z,1.30
2023-05-14T11:06:47.185Z,1.60
2023-05-14T11:12:09.036Z,1.92
2023-05-14T11:17:12.690Z,2.10
2023-05-14T11:22:15.754Z,2.03
2023-05-14T11:27:19.683Z,1.90
2023-05-14T11:32:22.938Z,2.17
2023-05-14T11:37:25.948Z,2.22
2023-05-14T11:42:47.687Z,1.65
2023-05-14T11:47:50.782Z,1.92
2023-05-14T11:52:57.509Z,1.67
2023-05-14T11:58:00.970Z,2.03
2023-05-14T12:03:04.217Z,1.85
2023-05-14T12:08:26.261Z,1.60
2023-05-14T12:13:32.728Z,2.03
2023-05-14T12:18:36.340Z,2.33
2023-05-14T12:23:39.844Z,2.00
2023-05-14T12:28:43.746Z,1.90
2023-05-14T12:33:47.936Z,2.17
2023-05-14T12:38:51.655Z,2.00
2023-05-14T12:43:54.502Z,2.00
2023-05-14T12:48:57.838Z,2.85
2023-05-14T12:54:00.728Z,2.40
2023-05-14T12:59:03.780Z,2.40
2023-05-14T13:04:06.755Z,2.00
2023-05-14T13:09:09.764Z,2.40
2023-05-14T13:14:31.447Z,1.92
2023-05-14T13:19:34.588Z,1.80
2023-05-14T13:24:37.453Z,2.20
2023-05-14T13:29:40.444Z,2.20
2023-05-14T13:34:44.378Z,2.17
2023-05-14T13:39:48.770Z,2.00
2023-05-14T13:44:52.994Z,1.70
2023-05-14T13:49:56.707Z,1.50
2023-05-14T13:54:59.632Z,2.00
2023-05-14T14:00:05.346Z,2.60
2023-05-14T14:05:10.242Z,1.33
2023-05-14T14:10:13.171Z,1.40
2023-05-14T14:15:16.116Z,2.53
2023-05-14T14:20:19.305Z,1.80
2023-05-14T14:25:22.679Z,3.10
2023-05-14T14:30:25.937Z,2.15
2023-05-14T14:35:28.926Z,1.88
2023-05-14T14:40:33.970Z,1.80
2023-05-14T14:45:37.075Z,2.03
2023-05-14T14:50:40.110Z,1.77
2023-05-14T14:55:42.926Z,2.20
2023-05-14T15:00:46.142Z,1.90
2023-05-14T15:05:49.107Z,1.20
2023-05-14T15:10:52.370Z,1.10
2023-05-14T15:15:55.387Z,1.48
2023-05-14T15:20:58.545Z,2.75
2023-05-14T15:26:01.423Z,2.30
2023-05-14T15:31:04.713Z,2.22
2023-05-14T15:36:08.408Z,2.00
2023-05-14T15:41:11.661Z,2.63
2023-05-14T15:46:14.746Z,2.60
2023-05-14T15:51:17.788Z,1.92
2023-05-14T15:56:22.211Z,1.73
2023-05-14T16:01:25.086Z,2.40
2023-05-14T16:06:28.015Z,2.58
2023-05-14T16:11:31.480Z,2.90
2023-05-14T16:16:34.398Z,2.40
2023-05-14T16:21:37.508Z,2.22
2023-05-14T16:26:40.822Z,1.80
2023-05-14T16:31:44.021Z,2.20
2023-05-14T16:36:47.325Z,2.30
2023-05-14T16:41:50.306Z,1.73
2023-05-14T16:46:53.390Z,1.80
2023-05-14T16:51:56.329Z,1.60
2023-05-14T16:56:59.315Z,1.65
2023-05-14T17:07:06.105Z,1.88
2023-05-14T17:12:11.312Z,1.73
2023-05-14T17:17:14.201Z,1.60
2023-05-14T17:22:17.462Z,2.17
2023-05-14T17:27:20.362Z,1.80
2023-05-14T17:32:23.265Z,1.75
2023-05-14T17:37:27.425Z,1.50
2023-05-14T17:42:30.403Z,1.58
2023-05-14T17:47:33.498Z,1.73
2023-05-14T17:52:36.836Z,1.80
2023-05-14T17:57:39.916Z,1.20
2023-05-14T18:02:42.914Z,1.15
2023-05-14T18:07:45.978Z,1.30
2023-05-14T18:12:49.850Z,1.20
2023-05-14T18:17:52.950Z,6.40
2023-05-14T18:22:57.139Z,3.10
2023-05-14T18:28:00.151Z,1.70
2023-05-14T18:33:03.613Z,1.90
2023-05-14T18:38:08.157Z,1.40
2023-05-14T18:43:13.562Z,1.50
2023-05-14T18:48:16.777Z,1.45
2023-05-14T18:53:19.765Z,1.30
2023-05-14T18:58:22.807Z,1.17
2023-05-14T19:03:26.237Z,1.23
2023-05-14T19:13:31.926Z,1.30
2023-05-14T19:18:35.156Z,1.20
2023-05-14T19:23:38.461Z,1.35
2023-05-14T19:28:41.606Z,1.30
2023-05-14T19:33:44.588Z,1.42
2023-05-14T19:38:48.560Z,1.30
2023-05-14T19:43:51.513Z,1.50
2023-05-14T19:48:54.442Z,1.50
2023-05-14T19:53:57.431Z,1.42
2023-05-14T19:59:00.335Z,1.33
2023-05-14T20:04:03.319Z,1.20
2023-05-14T20:09:06.318Z,1.33
2023-05-14T20:14:09.387Z,1.42
2023-05-14T20:19:13.884Z,1.30
2023-05-14T20:24:17.043Z,1.40
2023-05-14T20:29:20.053Z,1.55
2023-05-14T20:34:23.352Z,1.55
2023-05-14T20:39:26.234Z,1.50
2023-05-14T20:44:29.185Z,1.50
2023-05-14T20:49:32.106Z,1.58
2023-05-14T20:54:35.117Z,1.85
2023-05-14T20:59:38.434Z,1.50
2023-05-14T21:04:41.529Z,1.70
2023-05-14T21:09:50.994Z,1.50
2023-05-14T21:14:54.159Z,1.80
2023-05-14T21:19:57.238Z,1.70
2023-05-14T21:25:00.386Z,1.70
2023-05-14T21:30:03.548Z,1.70
2023-05-14T21:35:09.329Z,1.95
2023-05-14T21:40:12.823Z,2.10
2023-05-14T21:45:15.775Z,2.08
2023-05-14T21:50:20.093Z,2.03
2023-05-14T21:55:23.679Z,1.92
2023-05-14T22:00:26.834Z,2.17
2023-05-14T22:05:29.736Z,2.30
2023-05-14T22:10:32.575Z,2.17
2023-05-14T22:15:35.606Z,2.35
2023-05-14T22:20:39.288Z,2.28
2023-05-14T22:25:42.327Z,2.05
2023-05-14T22:30:45.179Z,2.17
2023-05-14T22:35:48.278Z,2.30
2023-05-14T22:40:51.364Z,2.30
2023-05-14T22:45:54.268Z,2.55
2023-05-14T22:50:57.152Z,2.38
2023-05-14T22:56:00.023Z,2.40
2023-05-14T23:01:02.985Z,2.80
2023-05-14T23:06:06.142Z,2.63
2023-05-14T23:11:09.124Z,2.70
2023-05-14T23:16:12.075Z,2.63
2023-05-14T23:21:15.246Z,2.30
2023-05-14T23:26:18.272Z,2.80
2023-05-14T23:31:21.517Z,2.75
2023-05-14T23:36:24.686Z,2.72
2023-05-14T23:41:27.591Z,3.00
2023-05-14T23:46:30.590Z,3.15
2023-05-14T23:51:33.533Z,3.08
2023-05-14T23:56:36.512Z,3.10
